Time;durP1;ratioP1;P1;durP2;ratioP2;P2;SDS_P1;SDS_P2;PMS_P1;PMS_P2;Temp;Humidity;BMP_temperature;BMP_pressure;BME280_temperature;BME280_humidity;BME280_pressure;Samples;Min_cycle;Max_cycle;Signal;HPM_P1;HPM_P2
2022/08/04 00:00:15;;;;;;;6.05;4.95;;;22.30;94.30;;;;;;4992637;28;20023;-53
2022/08/04 00:03:18;;;;;;;4.85;4.35;;;22.20;94.20;;;;;;4992796;28;20081;-56
2022/08/04 00:06:01;;;;;;;5.70;4.80;;;22.20;94.40;;;;;;4990851;28;20034;-55
2022/08/04 00:08:44;;;;;;;5.85;4.90;;;22.20;94.00;;;;;;4985593;28;20043;-55
2022/08/04 00:11:15;;;;;;;5.45;4.70;;;22.20;94.00;;;;;;4989469;28;20023;-55
2022/08/04 00:13:44;;;;;;;5.70;4.97;;;22.20;94.20;;;;;;4984003;28;20386;-56
2022/08/04 00:16:11;;;;;;;4.95;4.45;;;22.20;94.10;;;;;;4988893;28;20050;-55
2022/08/04 00:18:44;;;;;;;5.15;4.35;;;22.10;94.10;;;;;;4988520;28;20045;-55
2022/08/04 00:21:14;;;;;;;7.00;5.70;;;22.20;94.20;;;;;;4980769;28;20105;-56
2022/08/04 00:23:42;;;;;;;5.47;4.82;;;22.20;94.10;;;;;;4991330;28;20030;-55
2022/08/04 00:26:09;;;;;;;5.57;4.53;;;22.10;94.10;;;;;;4997779;28;20029;-55
2022/08/04 00:28:39;;;;;;;4.72;4.00;;;22.10;94.10;;;;;;4995264;28;20041;-55
2022/08/04 00:31:10;;;;;;;5.17;4.57;;;22.10;94.10;;;;;;4993963;28;20034;-54
2022/08/04 00:33:37;;;;;;;5.22;4.60;;;22.10;94.10;;;;;;4991735;28;20367;-55
2022/08/04 00:36:03;;;;;;;5.03;4.32;;;22.10;94.10;;;;;;4998543;28;20037;-54
2022/08/04 00:38:29;;;;;;;4.75;4.20;;;22.10;94.10;;;;;;4997092;28;20097;-55
2022/08/04 00:41:19;;;;;;;4.22;3.75;;;22.10;94.00;;;;;;4992938;28;20022;-55
2022/08/04 00:44:08;;;;;;;5.20;4.63;;;22.10;94.10;;;;;;4994797;28;20022;-55
2022/08/04 00:47:03;;;;;;;5.55;4.70;;;22.10;93.90;;;;;;4996022;28;20037;-55
2022/08/04 00:49:29;;;;;;;4.90;4.20;;;22.10;94.00;;;;;;4997517;28;20433;-55
2022/08/04 00:52:21;;;;;;;5.30;4.80;;;22.00;94.10;;;;;;4989421;28;20034;-55
2022/08/04 00:55:23;;;;;;;4.57;4.10;;;22.10;94.00;;;;;;4990268;28;20030;-55
2022/08/04 00:57:55;;;;;;;4.82;4.32;;;22.00;93.90;;;;;;4993612;28;20026;-55
2022/08/04 01:00:21;;;;;;;4.80;4.25;;;22.00;94.00;;;;;;4996542;28;20109;-55
2022/08/04 01:02:49;;;;;;;5.43;4.53;;;22.00;94.00;;;;;;4995480;28;20502;-55
2022/08/04 01:05:33;;;;;;;4.57;4.07;;;22.00;94.00;;;;;;4982753;28;20537;-55
2022/08/04 01:08:36;;;;;;;5.90;4.47;;;22.00;93.90;;;;;;4994419;28;20031;-55
2022/08/04 01:11:40;;;;;;;4.30;3.78;;;21.90;94.00;;;;;;4992964;28;20038;-54
2022/08/04 01:14:09;;;;;;;4.18;3.78;;;22.00;93.90;;;;;;4987578;28;20121;-55
2022/08/04 01:16:47;;;;;;;4.88;4.28;;;21.90;93.90;;;;;;4995882;28;20027;-55
2022/08/04 01:19:48;;;;;;;5.40;4.65;;;21.90;93.90;;;;;;4987827;28;20478;-55
2022/08/04 01:22:34;;;;;;;4.82;3.78;;;21.90;93.90;;;;;;4987319;28;20033;-56
2022/08/04 01:25:12;;;;;;;4.53;4.10;;;21.80;94.00;;;;;;4991061;28;20029;-55
2022/08/04 01:28:11;;;;;;;4.25;3.85;;;21.90;93.90;;;;;;4995177;28;20512;-55
2022/08/04 01:30:41;;;;;;;4.47;3.47;;;21.80;93.80;;;;;;4992565;28;20086;-55
2022/08/04 01:33:16;;;;;;;5.00;4.50;;;21.80;93.80;;;;;;4995159;28;20477;-55
2022/08/04 01:35:50;;;;;;;4.82;4.00;;;21.80;93.90;;;;;;4994844;28;20268;-55
2022/08/04 01:38:24;;;;;;;4.45;3.65;;;21.80;93.80;;;;;;4995542;28;20026;-55
2022/08/04 01:40:52;;;;;;;4.32;3.80;;;21.80;93.90;;;;;;4993734;28;20030;-55
2022/08/04 01:43:19;;;;;;;4.25;3.85;;;21.80;93.80;;;;;;4994270;28;20023;-54
2022/08/04 01:45:50;;;;;;;5.18;4.68;;;21.80;93.80;;;;;;4993976;28;20026;-55
2022/08/04 01:48:17;;;;;;;4.28;3.83;;;21.80;93.70;;;;;;4995255;28;20064;-55
2022/08/04 01:50:45;;;;;;;4.55;3.83;;;21.70;93.80;;;;;;4998219;28;20041;-55
2022/08/04 01:53:11;;;;;;;4.70;3.80;;;21.80;93.80;;;;;;4994247;28;20977;-55
2022/08/04 01:55:37;;;;;;;4.00;3.55;;;21.70;93.80;;;;;;4992462;28;20069;-55
2022/08/04 01:58:04;;;;;;;4.43;3.75;;;21.70;93.80;;;;;;4994716;28;20133;-55
2022/08/04 02:00:30;;;;;;;3.95;3.55;;;21.80;93.80;;;;;;4994579;28;20104;-55
2022/08/04 02:02:56;;;;;;;4.32;3.80;;;21.80;93.90;;;;;;4994619;28;20026;-56
2022/08/04 02:05:25;;;;;;;4.30;3.90;;;21.80;93.80;;;;;;4994838;28;20076;-55
2022/08/04 02:08:00;;;;;;;4.00;3.40;;;21.80;93.80;;;;;;4990447;28;20038;-55
2022/08/04 02:10:40;;;;;;;5.65;4.10;;;21.80;93.80;;;;;;4993137;28;20022;-55
2022/08/04 02:13:27;;;;;;;5.50;4.18;;;21.80;93.80;;;;;;4992762;28;20490;-54
2022/08/04 02:16:08;;;;;;;4.15;3.75;;;21.80;93.70;;;;;;4992582;28;20502;-55
2022/08/04 02:18:43;;;;;;;5.10;4.45;;;21.80;93.70;;;;;;4986781;28;20065;-55
2022/08/04 02:21:08;;;;;;;4.60;4.18;;;21.80;93.80;;;;;;4994052;28;20025;-55
2022/08/04 02:23:42;;;;;;;4.75;3.92;;;21.80;93.90;;;;;;4994083;28;20031;-56
2022/08/04 02:26:15;;;;;;;4.70;3.92;;;21.80;93.80;;;;;;4994350;28;20029;-55
2022/08/04 02:28:59;;;;;;;4.32;3.83;;;21.80;93.70;;;;;;4990438;28;20018;-55
2022/08/04 02:31:40;;;;;;;4.55;3.40;;;21.80;93.70;;;;;;4992112;28;20490;-55
2022/08/04 02:34:10;;;;;;;4.18;3.53;;;21.80;93.70;;;;;;4984652;28;20089;-55
2022/08/04 02:36:40;;;;;;;4.07;3.70;;;21.80;93.90;;;;;;4985173;28;20394;-55
2022/08/04 02:39:08;;;;;;;3.40;3.10;;;21.70;93.90;;;;;;4994232;28;20104;-54
2022/08/04 02:41:35;;;;;;;4.20;3.60;;;21.70;94.00;;;;;;4992208;28;20042;-56
2022/08/04 02:44:05;;;;;;;4.05;3.60;;;21.80;94.00;;;;;;5001910;28;20060;-55
2022/08/04 02:46:33;;;;;;;4.00;3.58;;;21.70;93.90;;;;;;4994094;28;20030;-55
2022/08/04 02:49:02;;;;;;;4.45;3.50;;;21.80;94.00;;;;;;4993359;28;20394;-55
2022/08/04 02:51:32;;;;;;;5.47;4.10;;;21.80;94.00;;;;;;4998740;28;20029;-55
2022/08/04 02:53:59;;;;;;;4.00;3.40;;;21.80;94.00;;;;;;4999441;28;20363;-55
2022/08/04 02:56:28;;;;;;;4.03;3.63;;;21.80;94.00;;;;;;4992899;28;20036;-54
2022/08/04 02:59:06;;;;;;;4.55;3.75;;;21.80;93.90;;;;;;5002986;28;20011;-55
2022/08/04 03:01:33;;;;;;;4.03;3.63;;;21.80;93.80;;;;;;4994288;28;20026;-55
2022/08/04 03:04:01;;;;;;;4.32;3.70;;;21.90;93.90;;;;;;4990822;28;20489;-56
2022/08/04 03:06:54;;;;;;;4.22;3.40;;;21.90;93.80;;;;;;4989076;28;20127;-55
2022/08/04 03:09:26;;;;;;;4.65;3.80;;;21.90;94.00;;;;;;4982654;28;20030;-55
2022/08/04 03:12:24;;;;;;;5.03;4.00;;;21.90;93.70;;;;;;4993424;28;20783;-55
2022/08/04 03:15:23;;;;;;;5.00;4.07;;;21.90;93.50;;;;;;4993063;28;20039;-55
2022/08/04 03:17:57;;;;;;;4.47;3.85;;;21.90;93.50;;;;;;4990871;28;20022;-55
2022/08/04 03:21:01;;;;;;;4.93;4.00;;;21.90;93.50;;;;;;4989933;28;20022;-55
2022/08/04 03:23:58;;;;;;;4.90;4.38;;;21.90;93.40;;;;;;4989090;28;20026;-55
2022/08/04 03:26:51;;;;;;;4.35;3.78;;;21.90;93.40;;;;;;4987105;28;20027;-55
2022/08/04 03:29:32;;;;;;;6.00;3.92;;;21.90;93.60;;;;;;4993765;28;20022;-56
2022/08/04 03:32:32;;;;;;;4.53;4.13;;;21.90;93.60;;;;;;4981361;28;20037;-55
2022/08/04 03:34:57;;;;;;;4.72;4.13;;;21.90;93.50;;;;;;4992609;28;20485;-55
2022/08/04 03:37:49;;;;;;;5.63;4.60;;;21.90;93.80;;;;;;4992661;28;20058;-55
2022/08/04 03:40:36;;;;;;;4.72;3.70;;;22.00;94.10;;;;;;4957094;28;20073;-55
2022/08/04 03:43:23;;;;;;;4.38;3.90;;;22.10;94.10;;;;;;4992973;28;20539;-55
2022/08/04 03:46:40;;;;;;;4.47;4.07;;;22.20;93.80;;;;;;4991989;28;20030;-55
2022/08/04 03:49:36;;;;;;;4.38;3.53;;;22.20;93.30;;;;;;4995525;28;20061;-55
2022/08/04 03:55:17;;;;;;;4.75;3.88;;;22.20;93.00;;;;;;4984873;28;20117;-55
2022/08/04 03:58:16;;;;;;;5.63;4.53;;;22.20;93.00;;;;;;4990021;28;20042;-55
2022/08/04 04:01:11;;;;;;;4.80;4.30;;;22.20;92.90;;;;;;4993153;28;20101;-55
2022/08/04 04:03:55;;;;;;;4.93;4.43;;;22.20;92.90;;;;;;4988579;28;20041;-55
2022/08/04 04:06:39;;;;;;;5.70;4.75;;;22.20;92.80;;;;;;4985239;28;20394;-55
2022/08/04 04:09:38;;;;;;;5.15;4.53;;;22.20;93.00;;;;;;4989860;28;20030;-54
2022/08/04 04:12:54;;;;;;;6.40;5.03;;;22.10;92.90;;;;;;4990917;28;20046;-55
2022/08/04 04:15:37;;;;;;;4.68;4.15;;;22.20;93.10;;;;;;4936497;29;20062;-55
2022/08/04 04:18:18;;;;;;;5.15;4.45;;;22.20;93.00;;;;;;4938238;29;20395;-55
2022/08/04 04:21:14;;;;;;;5.80;4.93;;;22.20;92.90;;;;;;4969262;28;20112;-55
2022/08/04 04:24:15;;;;;;;5.93;5.00;;;22.20;92.80;;;;;;4992377;28;20038;-55
2022/08/04 04:27:06;;;;;;;5.60;4.37;;;22.20;92.70;;;;;;4988401;28;20992;-55
2022/08/04 04:30:07;;;;;;;5.47;4.63;;;22.20;92.90;;;;;;4981565;28;20049;-55
2022/08/04 04:32:54;;;;;;;6.32;5.00;;;22.20;92.70;;;;;;4981637;28;20490;-55
2022/08/04 04:35:58;;;;;;;5.85;4.80;;;22.20;92.80;;;;;;4981548;28;20097;-55
2022/08/04 04:38:51;;;;;;;6.93;5.35;;;22.20;92.70;;;;;;4980458;28;20019;-56
2022/08/04 04:41:41;;;;;;;5.82;5.00;;;22.20;92.80;;;;;;4968659;28;20030;-55
2022/08/04 04:44:13;;;;;;;6.20;5.13;;;22.20;92.80;;;;;;4985274;28;20393;-56
2022/08/04 04:46:54;;;;;;;5.38;4.65;;;22.20;92.80;;;;;;4989191;28;20047;-55
2022/08/04 04:49:24;;;;;;;;;;;22.20;92.80;;;;;;4994412;28;20044;-55
2022/08/04 04:52:31;;;;;;;6.30;5.00;;;22.20;92.70;;;;;;4990680;28;19937;-55
2022/08/04 04:55:04;;;;;;;6.68;5.00;;;22.20;92.70;;;;;;4981736;28;20804;-56
2022/08/04 04:57:35;;;;;;;6.53;5.40;;;22.20;92.80;;;;;;4981193;28;20037;-55
2022/08/04 05:00:09;;;;;;;6.28;5.50;;;22.20;92.70;;;;;;4982440;28;20026;-55
2022/08/04 05:03:00;;;;;;;6.03;5.07;;;22.20;92.70;;;;;;4985451;28;20038;-55
2022/08/04 05:05:29;;;;;;;6.47;5.45;;;22.20;92.60;;;;;;4980725;28;20030;-55
2022/08/04 05:08:31;;;;;;;6.10;5.25;;;22.30;92.70;;;;;;4984991;28;20471;-55
2022/08/04 05:10:59;;;;;;;6.57;5.38;;;22.30;92.50;;;;;;4982973;28;20026;-55
2022/08/04 05:13:37;;;;;;;6.45;5.55;;;22.30;92.60;;;;;;4989907;28;20070;-55
2022/08/04 05:16:17;;;;;;;7.15;5.63;;;22.20;92.40;;;;;;4979330;28;20463;-55
2022/08/04 05:18:48;;;;;;;6.97;5.75;;;22.20;92.40;;;;;;4984649;28;20397;-55
2022/08/04 05:21:31;;;;;;;;;;;22.20;92.40;;;;;;4996548;28;20065;-55
2022/08/04 05:24:02;;;;;;;6.57;5.18;;;22.20;92.40;;;;;;4989107;28;19946;-55
2022/08/04 05:26:31;;;;;;;5.88;5.10;;;22.20;92.60;;;;;;4987947;28;20018;-55
2022/08/04 05:29:01;;;;;;;6.45;5.68;;;22.20;92.50;;;;;;4984408;28;20046;-55
2022/08/04 05:31:38;;;;;;;5.85;5.20;;;22.20;92.50;;;;;;4989098;28;20053;-57
2022/08/04 05:34:19;;;;;;;6.57;5.40;;;22.20;92.70;;;;;;4985345;28;20038;-56
2022/08/04 05:36:49;;;;;;;;;;;22.30;92.30;;;;;;4995008;28;20120;-55
2022/08/04 05:39:23;;;;;;;5.72;4.72;;;22.20;92.20;;;;;;4991374;28;19920;-55
2022/08/04 05:41:49;;;;;;;6.32;5.63;;;22.20;92.40;;;;;;4993692;28;20030;-56
2022/08/04 05:44:17;;;;;;;5.88;4.70;;;22.20;92.40;;;;;;4987895;28;20049;-55
2022/08/04 05:46:47;;;;;;;6.78;5.63;;;22.20;92.40;;;;;;4982249;28;20041;-56
2022/08/04 05:49:13;;;;;;;5.90;4.93;;;22.20;92.50;;;;;;4977196;28;20482;-56
2022/08/04 05:51:40;;;;;;;6.55;5.47;;;22.20;92.50;;;;;;4981746;28;20039;-55
2022/08/04 05:54:06;;;;;;;6.45;5.22;;;22.20;92.50;;;;;;4984473;28;20116;-57
2022/08/04 05:56:33;;;;;;;6.90;5.70;;;22.20;92.50;;;;;;4973420;28;20132;-56
2022/08/04 05:59:01;;;;;;;7.63;6.07;;;22.20;92.40;;;;;;4974286;28;20038;-56
2022/08/04 06:01:28;;;;;;;7.45;6.60;;;22.30;92.50;;;;;;4977479;28;20030;-57
2022/08/04 06:03:56;;;;;;;7.82;6.28;;;22.20;92.40;;;;;;4975649;28;20045;-54
2022/08/04 06:06:22;;;;;;;9.23;6.03;;;22.30;92.40;;;;;;4979227;28;20101;-57
2022/08/04 06:08:47;;;;;;;8.15;6.40;;;22.30;92.40;;;;;;4982791;28;20037;-55
2022/08/04 06:11:15;;;;;;;8.10;6.07;;;22.30;92.30;;;;;;4979843;28;20986;-56
2022/08/04 06:13:46;;;;;;;6.65;5.50;;;22.30;92.40;;;;;;4978837;28;20057;-57
2022/08/04 06:16:15;;;;;;;7.07;6.38;;;22.20;92.40;;;;;;4972219;28;20034;-57
2022/08/04 06:18:44;;;;;;;6.90;5.85;;;22.30;92.40;;;;;;4979638;28;20026;-55
2022/08/04 06:21:11;;;;;;;7.22;5.82;;;22.30;92.40;;;;;;4982197;28;20041;-55
2022/08/04 06:23:40;;;;;;;6.72;5.43;;;22.30;92.50;;;;;;4984489;28;20058;-56
2022/08/04 06:26:06;;;;;;;6.63;5.68;;;22.30;92.50;;;;;;4979378;28;20019;-56
2022/08/04 06:28:32;;;;;;;7.20;5.93;;;22.30;92.40;;;;;;4980147;28;20034;-56
2022/08/04 06:31:02;;;;;;;6.78;6.00;;;22.30;92.40;;;;;;4980383;28;20030;-56
2022/08/04 06:33:33;;;;;;;5.53;4.95;;;22.40;92.40;;;;;;4986743;28;20042;-55
2022/08/04 06:36:01;;;;;;;6.88;5.57;;;22.40;92.40;;;;;;4973429;28;20080;-56
2022/08/04 06:38:29;;;;;;;6.90;5.95;;;22.40;92.30;;;;;;4977643;28;20040;-56
2022/08/04 06:41:02;;;;;;;8.23;6.22;;;22.40;92.30;;;;;;4982241;28;20030;-56
2022/08/04 06:43:30;;;;;;;7.72;6.25;;;22.40;92.30;;;;;;4980061;28;20045;-55
2022/08/04 06:45:58;;;;;;;6.97;6.00;;;22.50;92.30;;;;;;4979555;28;20100;-57
2022/08/04 06:48:25;;;;;;;6.47;5.38;;;22.50;92.30;;;;;;4978894;28;20823;-57
2022/08/04 06:50:52;;;;;;;7.38;6.32;;;22.50;92.30;;;;;;4973837;28;20165;-54
2022/08/04 06:53:17;;;;;;;8.73;7.57;;;22.50;92.30;;;;;;4973276;28;20460;-56
2022/08/04 06:55:46;;;;;;;9.18;7.50;;;22.50;92.20;;;;;;4973554;28;20025;-56
2022/08/04 06:58:15;;;;;;;6.65;5.78;;;22.50;92.10;;;;;;4967293;28;20473;-56
2022/08/04 07:00:42;;;;;;;6.85;6.13;;;22.50;92.10;;;;;;4970515;28;20030;-54
2022/08/04 07:03:09;;;;;;;8.40;6.85;;;22.60;92.20;;;;;;4971421;28;20030;-55
2022/08/04 07:05:35;;;;;;;8.27;6.80;;;22.60;92.10;;;;;;4966525;28;20050;-55
2022/08/04 07:08:01;;;;;;;7.53;6.63;;;22.60;92.10;;;;;;4962828;28;20030;-55
2022/08/04 07:10:27;;;;;;;7.85;6.70;;;22.60;92.10;;;;;;4970993;28;20111;-55
2022/08/04 07:13:00;;;;;;;7.53;6.20;;;22.60;92.00;;;;;;4965047;28;20101;-53
2022/08/04 07:15:27;;;;;;;7.75;6.32;;;22.60;92.00;;;;;;4966084;28;20518;-55
2022/08/04 07:17:58;;;;;;;9.40;6.97;;;22.70;92.10;;;;;;4971072;28;20092;-56
2022/08/04 07:20:24;;;;;;;7.93;6.82;;;22.70;92.10;;;;;;4960793;28;20215;-55
2022/08/04 07:22:52;;;;;;;8.50;6.90;;;22.70;92.00;;;;;;4962771;28;20479;-55
2022/08/04 07:25:18;;;;;;;7.20;6.43;;;22.70;92.00;;;;;;4969566;28;20042;-55
2022/08/04 07:27:44;;;;;;;7.10;6.35;;;22.70;91.90;;;;;;4965112;28;20521;-55
2022/08/04 07:30:10;;;;;;;9.52;6.78;;;22.70;91.90;;;;;;4967702;28;20031;-55
2022/08/04 07:32:40;;;;;;;8.15;6.93;;;22.80;91.90;;;;;;4966331;28;20050;-56
2022/08/04 07:35:07;;;;;;;11.20;7.32;;;22.80;91.90;;;;;;4966033;28;20062;-55
2022/08/04 07:37:33;;;;;;;9.85;8.38;;;22.80;91.90;;;;;;4975936;28;20034;-56
2022/08/04 07:39:59;;;;;;;9.18;7.90;;;22.80;91.80;;;;;;4975142;28;20062;-55
2022/08/04 07:42:27;;;;;;;10.38;7.88;;;22.80;91.90;;;;;;4970612;28;20039;-54
2022/08/04 07:44:52;;;;;;;8.20;7.10;;;22.90;91.90;;;;;;4955347;28;20035;-54
2022/08/04 07:47:18;;;;;;;7.25;6.43;;;22.90;91.90;;;;;;4970052;28;22811;-55
2022/08/04 07:49:44;;;;;;;8.73;7.40;;;22.90;91.90;;;;;;4970226;28;20422;-56
2022/08/04 07:52:10;;;;;;;7.75;6.88;;;23.00;91.70;;;;;;4969071;28;20045;-57
2022/08/04 07:54:37;;;;;;;7.85;6.82;;;23.00;91.70;;;;;;4966752;28;20032;-55
2022/08/04 07:57:03;;;;;;;9.73;7.70;;;23.00;91.70;;;;;;4945073;28;23441;-56
2022/08/04 07:59:29;;;;;;;6.72;5.97;;;23.10;91.70;;;;;;4952155;28;20045;-56
2022/08/04 08:01:59;;;;;;;7.50;6.70;;;23.10;91.60;;;;;;4960131;28;20058;-55
2022/08/04 08:04:25;;;;;;;10.20;8.55;;;23.10;91.70;;;;;;4956315;28;20030;-55
2022/08/04 08:06:51;;;;;;;8.63;7.22;;;23.10;91.60;;;;;;4966656;28;21057;-56
2022/08/04 08:09:22;;;;;;;7.78;6.43;;;23.10;91.60;;;;;;4961498;28;20038;-56
2022/08/04 08:11:51;;;;;;;8.00;6.95;;;23.10;91.50;;;;;;4957136;28;20061;-55
2022/08/04 08:14:17;;;;;;;8.43;7.28;;;23.20;91.20;;;;;;4959551;28;20043;-57
2022/08/04 08:16:44;;;;;;;9.00;7.68;;;23.20;91.50;;;;;;4961550;28;20569;-56
2022/08/04 08:19:10;;;;;;;7.40;6.20;;;23.20;91.40;;;;;;4960567;28;20023;-57
2022/08/04 08:21:36;;;;;;;8.00;6.57;;;23.20;91.30;;;;;;4969875;28;20092;-57
2022/08/04 08:24:02;;;;;;;8.25;6.82;;;23.20;91.20;;;;;;4957610;28;20030;-58
2022/08/04 08:26:29;;;;;;;8.13;6.85;;;23.20;91.30;;;;;;4961206;28;20034;-54
2022/08/04 08:28:56;;;;;;;7.93;7.13;;;23.20;91.20;;;;;;4964816;28;20102;-56
2022/08/04 08:31:21;;;;;;;8.15;7.15;;;23.30;91.30;;;;;;4951216;28;20488;-55
2022/08/04 08:33:49;;;;;;;8.15;7.00;;;23.30;91.40;;;;;;4947188;28;20034;-56
2022/08/04 08:36:40;;;;;;;8.60;7.07;;;23.30;91.40;;;;;;4959680;28;20075;-55
2022/08/04 08:39:21;;;;;;;7.20;6.47;;;23.40;91.20;;;;;;4961986;28;20049;-54
2022/08/04 08:42:04;;;;;;;8.15;6.53;;;23.50;91.10;;;;;;4961883;28;25070;-55
2022/08/04 08:44:57;;;;;;;6.80;5.82;;;23.50;90.90;;;;;;4968824;28;20124;-56
2022/08/04 08:47:34;;;;;;;7.53;6.50;;;23.50;90.90;;;;;;4959210;28;20042;-53
2022/08/04 08:50:16;;;;;;;7.30;6.15;;;23.60;91.00;;;;;;4969221;28;20077;-55
2022/08/04 08:52:55;;;;;;;8.45;6.60;;;23.70;90.80;;;;;;4964893;28;20034;-56
2022/08/04 08:55:34;;;;;;;7.43;6.32;;;23.80;90.70;;;;;;4946085;28;20038;-55
2022/08/04 08:58:00;;;;;;;6.97;6.13;;;23.90;90.60;;;;;;4954908;28;20038;-55
2022/08/04 09:00:44;;;;;;;7.50;5.85;;;23.90;90.50;;;;;;4962138;28;20052;-56
2022/08/04 09:03:15;;;;;;;7.32;5.80;;;24.00;90.30;;;;;;4965068;28;20034;-54
2022/08/04 09:05:47;;;;;;;7.05;6.35;;;24.00;90.10;;;;;;4956911;28;20136;-56
2022/08/04 09:08:46;;;;;;;6.20;5.47;;;24.10;90.00;;;;;;4960304;28;20026;-55
2022/08/04 09:11:15;;;;;;;6.25;5.65;;;24.10;89.70;;;;;;4965270;28;20041;-55
2022/08/04 09:13:48;;;;;;;6.90;5.82;;;24.10;89.40;;;;;;4960720;28;20073;-55
2022/08/04 09:16:30;;;;;;;7.28;5.80;;;24.10;89.10;;;;;;4960069;28;20064;-57
2022/08/04 09:19:25;;;;;;;7.28;5.40;;;24.20;88.90;;;;;;4962347;28;20449;-55
2022/08/04 09:21:59;;;;;;;6.80;5.60;;;24.20;88.60;;;;;;4959389;28;20157;-56
2022/08/04 09:24:31;;;;;;;7.00;6.03;;;24.20;88.80;;;;;;4960364;28;20216;-55
2022/08/04 09:27:02;;;;;;;6.60;5.50;;;24.20;88.70;;;;;;4959037;28;20034;-55
2022/08/04 09:29:56;;;;;;;6.40;5.40;;;24.20;88.30;;;;;;4954539;28;20041;-55
2022/08/04 09:32:37;;;;;;;6.60;5.82;;;24.20;88.00;;;;;;4959123;28;20026;-55
2022/08/04 09:35:27;;;;;;;6.28;5.68;;;24.30;88.20;;;;;;4965441;28;20045;-56
2022/08/04 09:38:12;;;;;;;6.67;5.60;;;24.30;87.90;;;;;;4967715;28;20055;-54
2022/08/04 09:41:04;;;;;;;6.07;5.28;;;24.30;87.90;;;;;;4957693;28;20035;-55
2022/08/04 09:43:47;;;;;;;5.95;5.35;;;24.30;87.60;;;;;;4956439;28;20136;-55
2022/08/04 09:46:21;;;;;;;6.22;5.47;;;24.30;88.40;;;;;;4949823;28;20049;-55
2022/08/04 09:48:58;;;;;;;6.60;5.57;;;24.30;87.70;;;;;;4955189;28;20035;-54
2022/08/04 09:51:52;;;;;;;6.53;5.82;;;24.30;87.70;;;;;;4955518;28;21753;-56
2022/08/04 09:54:45;;;;;;;6.35;5.65;;;24.40;87.30;;;;;;4966349;28;20459;-55
2022/08/04 09:57:13;;;;;;;5.78;5.18;;;24.50;87.10;;;;;;4960031;28;20034;-56
2022/08/04 09:59:57;;;;;;;7.50;5.68;;;24.50;87.10;;;;;;4961842;28;20737;-55
2022/08/04 10:02:27;;;;;;;6.95;5.85;;;24.50;86.90;;;;;;4955435;28;21129;-55
2022/08/04 10:04:55;;;;;;;7.05;5.93;;;24.50;86.80;;;;;;4957819;28;20084;-53
2022/08/04 10:07:33;;;;;;;6.82;5.25;;;24.50;86.70;;;;;;4965295;28;20026;-56
2022/08/04 10:10:30;;;;;;;6.18;5.50;;;24.60;86.70;;;;;;4969339;28;20482;-54
2022/08/04 10:12:58;;;;;;;6.00;5.40;;;24.60;86.50;;;;;;4963621;28;20433;-54
2022/08/04 10:15:35;;;;;;;6.60;5.93;;;24.70;86.30;;;;;;4968530;28;20042;-56
2022/08/04 10:18:33;;;;;;;6.90;5.72;;;24.70;85.80;;;;;;4961760;28;20573;-56
2022/08/04 10:21:17;;;;;;;6.28;5.40;;;24.70;85.60;;;;;;4953352;28;20031;-55
2022/08/04 10:24:19;;;;;;;6.93;5.72;;;24.70;85.90;;;;;;4944200;28;20040;-56
2022/08/04 10:27:06;;;;;;;6.20;5.43;;;24.70;85.80;;;;;;4953060;28;20026;-56
2022/08/04 10:29:46;;;;;;;6.10;5.25;;;24.80;85.80;;;;;;4954583;28;20031;-54
2022/08/04 10:32:17;;;;;;;6.32;5.60;;;24.80;85.80;;;;;;4957696;28;20045;-55
2022/08/04 10:35:01;;;;;;;7.88;6.60;;;24.80;85.70;;;;;;4948238;28;20124;-56
2022/08/04 10:37:41;;;;;;;5.68;4.95;;;24.80;85.30;;;;;;4953391;28;20037;-55
2022/08/04 10:43:24;;;;;;;6.00;5.40;;;24.90;85.30;;;;;;4950446;28;20631;-55
2022/08/04 10:45:58;;;;;;;6.40;5.38;;;24.90;85.50;;;;;;4957866;28;20497;-56
2022/08/04 10:48:58;;;;;;;5.72;5.13;;;25.00;85.50;;;;;;4957012;28;20038;-56
2022/08/04 10:51:47;;;;;;;6.55;5.75;;;25.00;85.30;;;;;;4963128;28;20041;-55
2022/08/04 10:54:34;;;;;;;6.18;5.57;;;25.00;85.20;;;;;;4955073;28;20448;-56
2022/08/04 10:57:07;;;;;;;6.50;5.78;;;25.00;85.10;;;;;;4943065;28;20115;-55
2022/08/04 10:59:55;;;;;;;6.95;5.90;;;25.10;84.70;;;;;;4962680;28;20030;-56
2022/08/04 11:02:42;;;;;;;7.25;6.00;;;25.10;84.60;;;;;;4953017;28;20114;-56
2022/08/04 11:05:24;;;;;;;6.80;5.78;;;25.10;84.60;;;;;;4959228;28;20442;-56
2022/08/04 11:07:55;;;;;;;7.50;6.20;;;25.10;84.70;;;;;;4964251;28;20077;-55
2022/08/04 11:10:26;;;;;;;6.47;5.82;;;25.10;84.60;;;;;;4944395;28;20045;-55
2022/08/04 11:12:58;;;;;;;6.38;5.57;;;25.10;84.60;;;;;;4955416;28;21084;-57
2022/08/04 11:15:40;;;;;;;6.43;5.80;;;25.10;84.60;;;;;;4961093;28;20772;-56
2022/08/04 11:18:13;;;;;;;6.22;5.47;;;25.20;84.60;;;;;;4966004;28;20030;-55
2022/08/04 11:20:56;;;;;;;7.30;5.72;;;25.20;84.50;;;;;;4962434;28;20062;-56
2022/08/04 11:23:31;;;;;;;6.47;5.63;;;25.30;84.40;;;;;;4948790;28;20034;-56
2022/08/04 11:26:12;;;;;;;6.70;6.00;;;25.30;84.10;;;;;;4949162;28;20454;-56
2022/08/04 11:29:08;;;;;;;6.30;5.70;;;25.40;84.00;;;;;;4957993;28;20481;-55
2022/08/04 11:31:39;;;;;;;6.53;5.65;;;25.40;83.50;;;;;;4948674;28;20461;-54
2022/08/04 11:34:10;;;;;;;6.85;5.82;;;25.40;83.80;;;;;;4953286;28;20030;-56
2022/08/04 11:36:59;;;;;;;6.20;5.60;;;25.50;83.70;;;;;;4949652;28;20022;-55
2022/08/04 11:39:35;;;;;;;6.78;6.05;;;25.60;83.50;;;;;;4955921;28;20046;-56
2022/08/04 11:42:22;;;;;;;7.10;6.40;;;25.60;83.30;;;;;;4956282;28;20031;-56
2022/08/04 11:45:04;;;;;;;7.07;5.95;;;25.60;83.60;;;;;;4955687;28;20047;-54
2022/08/04 11:47:38;;;;;;;6.50;5.60;;;25.70;82.90;;;;;;4946053;28;20480;-56
2022/08/04 11:50:24;;;;;;;7.18;6.20;;;25.70;82.80;;;;;;4958407;28;20042;-53
2022/08/04 11:52:53;;;;;;;5.95;5.35;;;25.70;83.20;;;;;;4955308;28;20124;-56
2022/08/04 11:55:21;;;;;;;5.97;5.35;;;25.70;82.60;;;;;;4950206;28;20058;-56
2022/08/04 11:57:47;;;;;;;5.82;5.22;;;25.70;82.50;;;;;;4957656;28;20030;-56
2022/08/04 12:00:16;;;;;;;5.93;5.20;;;25.80;82.10;;;;;;4951776;28;20030;-55
2022/08/04 12:03:21;;;;;;;6.25;5.35;;;25.70;81.70;;;;;;4957297;28;20128;-57
2022/08/04 12:06:09;;;;;;;5.50;4.88;;;25.70;81.50;;;;;;4928847;28;20238;-56
2022/08/04 12:09:03;;;;;;;6.50;5.80;;;25.80;81.90;;;;;;4955873;28;20122;-54
2022/08/04 12:11:28;;;;;;;6.20;5.38;;;25.80;81.80;;;;;;4945205;28;21637;-54
2022/08/04 12:14:13;;;;;;;6.22;5.57;;;25.80;82.10;;;;;;4951389;28;20039;-56
2022/08/04 12:17:09;;;;;;;6.93;6.22;;;25.90;82.50;;;;;;4947326;28;20058;-55
2022/08/04 12:19:45;;;;;;;8.05;6.28;;;25.90;82.10;;;;;;4934475;28;20058;-55
2022/08/04 12:22:24;;;;;;;6.80;5.75;;;25.90;82.10;;;;;;4944686;28;20038;-56
2022/08/04 12:25:00;;;;;;;8.45;5.82;;;25.90;82.40;;;;;;4949304;28;20458;-56
2022/08/04 12:27:48;;;;;;;6.97;6.25;;;25.80;82.40;;;;;;4952315;28;20038;-56
2022/08/04 12:30:16;;;;;;;7.95;6.45;;;25.80;82.20;;;;;;4959229;28;20030;-55
2022/08/04 12:32:51;;;;;;;6.55;5.63;;;25.80;82.10;;;;;;4957712;28;20042;-56
2022/08/04 12:35:29;;;;;;;5.97;5.38;;;25.70;81.90;;;;;;4961356;28;20027;-56
2022/08/04 12:38:05;;;;;;;6.75;4.97;;;25.60;81.80;;;;;;4962757;28;20023;-55
2022/08/04 12:40:45;;;;;;;6.65;5.40;;;25.60;82.00;;;;;;4961159;28;20026;-56
2022/08/04 12:43:26;;;;;;;5.70;5.10;;;25.50;82.20;;;;;;4953381;28;20034;-56
2022/08/04 12:45:57;;;;;;;;;;;25.40;82.60;;;;;;4954337;28;20030;-56
2022/08/04 12:48:24;;;;;;;;;;;25.40;82.90;;;;;;4961735;28;19957;-56
2022/08/04 12:50:54;;;;;;;4.97;4.45;;;25.30;83.00;;;;;;4954392;28;19917;-56
2022/08/04 12:53:27;;;;;;;5.27;4.47;;;25.30;83.00;;;;;;4968137;28;20026;-55
2022/08/04 12:55:54;;;;;;;5.90;5.05;;;25.20;83.30;;;;;;4958268;28;20053;-56
2022/08/04 12:58:23;;;;;;;5.35;4.68;;;25.20;83.40;;;;;;4954406;28;20030;-56
2022/08/04 13:01:12;;;;;;;5.72;4.88;;;25.30;83.60;;;;;;4948828;28;20470;-56
2022/08/04 13:03:42;;;;;;;5.28;4.60;;;25.20;83.70;;;;;;4952162;28;20823;-54
2022/08/04 13:06:13;;;;;;;5.72;4.97;;;25.20;83.80;;;;;;4964343;28;20037;-57
2022/08/04 13:08:44;;;;;;;5.22;4.72;;;25.20;84.00;;;;;;4960279;28;20092;-54
2022/08/04 13:11:10;;;;;;;6.15;4.78;;;25.20;84.00;;;;;;4968538;28;20030;-56
2022/08/04 13:13:38;;;;;;;5.90;5.30;;;25.20;84.20;;;;;;4967063;28;20046;-56
2022/08/04 13:16:06;;;;;;;6.88;5.20;;;25.20;84.30;;;;;;4963996;28;21630;-56
2022/08/04 13:18:35;;;;;;;6.35;5.35;;;25.20;84.50;;;;;;4969749;28;20097;-55
2022/08/04 13:21:16;;;;;;;5.50;5.00;;;25.20;84.30;;;;;;4963148;28;20023;-55
2022/08/04 13:23:46;;;;;;;6.10;5.50;;;25.20;84.30;;;;;;4967776;28;20442;-56
2022/08/04 13:26:16;;;;;;;6.07;5.38;;;25.20;84.40;;;;;;4963959;28;20022;-56
2022/08/04 13:28:47;;;;;;;6.25;5.65;;;25.20;84.40;;;;;;4965200;28;20040;-54
2022/08/04 13:31:25;;;;;;;5.78;5.18;;;25.30;84.60;;;;;;4958111;28;20484;-56
2022/08/04 13:33:53;;;;;;;6.45;5.32;;;25.30;84.20;;;;;;4947698;28;20038;-55
2022/08/04 13:36:24;;;;;;;6.60;5.57;;;25.30;84.10;;;;;;4951476;28;20790;-55
2022/08/04 13:39:06;;;;;;;6.97;5.50;;;25.30;84.00;;;;;;4957635;28;20049;-54
2022/08/04 13:41:35;;;;;;;6.50;5.80;;;25.40;83.90;;;;;;4960676;28;20466;-56